NORTHEAST SUFFOLK  -  Air Quality Alert Air Quality Alert        NORTHERN NASSAU  -  Air Quality Alert Air Quality Alert        NORTHERN QUEENS  -  Air Quality Alert Air Quality Alert        NORTHWEST SUFFOLK  -  Air Quality Alert Air Quality Alert        SOUTHEAST SUFFOLK  -  Air Quality Alert Air Quality Alert        SOUTHERN NASSAU  -  Air Quality Alert Air Quality Alert        SOUTHERN QUEENS  -  Air Quality Alert Air Quality Alert        SOUTHWEST SUFFOLK  -  Air Quality Alert Air Quality Alert      

Active alerts

Northern Queens
  Details for Northern Queens Air Quality Alert
Southern Queens
  Details for Southern Queens Air Quality Alert
Northern Nassau
  Details for Northern Nassau Air Quality Alert
Southern Nassau
  Details for Southern Nassau Air Quality Alert
Northwest Suffolk
  Details for Northwest Suffolk Air Quality Alert
Southwest Suffolk
  Details for Southwest Suffolk Air Quality Alert
Northeast Suffolk
  Details for Northeast Suffolk Air Quality Alert
Southeast Suffolk
  Details for Southeast Suffolk Air Quality Alert


WXM80 ListenWXM80 Stop

You find our weather info also at:

UK Metoffice

WeatherCloud

Weather Underground

Northeastern Weather Network

AWEKAS

Citizen Weather Observer Program (CWOP)

HAMweather, WeatherForYou, PWS Weather


Weather Underground History page Text

Daily Summary for June 29, 2017 Units:  English    Metric   Both
« Previous Day
Next Day »
Daily Weekly Monthly Yearly Custom
  High: Low: Average:
Temperature: 82.6 °F 64.5 °F 72.8 °F
Dew Point: 67.4 °F 56.0 °F 62.2 °F
Humidity: 79 % 55 % 70 %
Wind Speed: 7.5 mph 0.0 mph 1.9 mph
Wind Gust: 14.0 mph - -
Wind:- - SSW
Pressure: 30.13 in 29.98 in -
Precipitation: 0.00 in    
Historical Graphs
 
 
Tabular Data for June 29, 2017
Time Temperature Dew Point Pressure Wind Wind Speed Wind Gust Humidity Rainfall Rate (Hourly)
00:00 67.4 °F 57.7 °F 30.08 in Calm   2.3 mph 71 % 0.00 in
00:05 67.4 °F 57.7 °F 30.08 in WSW 0.6 mph 2.3 mph 71 % 0.00 in
00:10 67.4 °F 57.7 °F 30.08 in SW 0.9 mph 3.5 mph 71 % 0.00 in
00:15 67.4 °F 57.7 °F 30.08 in SW 0.8 mph 3.5 mph 71 % 0.00 in
00:20 67.3 °F 58.0 °F 30.08 in SW 1.0 mph 2.3 mph 72 % 0.00 in
00:25 67.3 °F 58.0 °F 30.08 in SW 1.2 mph 3.5 mph 72 % 0.00 in
00:30 67.3 °F 57.6 °F 30.07 in South 0.3 mph 2.3 mph 71 % 0.00 in
00:35 67.3 °F 57.6 °F 30.07 in SW 0.6 mph 3.5 mph 71 % 0.00 in
00:40 67.2 °F 57.5 °F 30.08 in WSW 1.2 mph 2.3 mph 71 % 0.00 in
00:45 67.2 °F 57.5 °F 30.08 in WSW 0.8 mph 3.0 mph 71 % 0.00 in
00:50 67.2 °F 57.5 °F 30.08 in WSW 0.5 mph 2.3 mph 71 % 0.00 in
00:55 67.2 °F 57.5 °F 30.08 in WSW 1.4 mph 3.5 mph 71 % 0.00 in
01:00 67.2 °F 57.5 °F 30.08 in West 2.0 mph 6.9 mph 71 % 0.00 in
01:05 67.2 °F 57.5 °F 30.08 in WSW 0.8 mph 3.0 mph 71 % 0.00 in
01:10 67.2 °F 57.5 °F 30.08 in WSW 1.3 mph 2.3 mph 71 % 0.00 in
01:15 67.2 °F 57.5 °F 30.08 in WSW 0.4 mph 1.2 mph 71 % 0.00 in
01:20 67.2 °F 57.5 °F 30.08 in WSW 1.5 mph 4.6 mph 71 % 0.00 in
01:25 67.1 °F 57.4 °F 30.08 in SSE 1.1 mph 3.0 mph 71 % 0.00 in
01:30 67.1 °F 57.4 °F 30.08 in South 0.3 mph 2.0 mph 71 % 0.00 in
01:35 67.1 °F 57.4 °F 30.08 in SW 0.5 mph 2.3 mph 71 % 0.00 in
01:40 67.0 °F 57.3 °F 30.08 in SW 0.1 mph 1.2 mph 71 % 0.00 in
01:45 67.0 °F 57.3 °F 30.08 in Calm     71 % 0.00 in
01:50 66.9 °F 57.2 °F 30.09 in SW 0.6 mph 3.5 mph 71 % 0.00 in
01:56 66.9 °F 57.2 °F 30.09 in SW 0.3 mph 2.3 mph 71 % 0.00 in
02:01 66.8 °F 57.1 °F 30.09 in WSW 0.6 mph 1.2 mph 71 % 0.00 in
02:06 66.8 °F 57.1 °F 30.09 in WSW 2.0 mph 8.0 mph 71 % 0.00 in
02:11 66.7 °F 57.0 °F 30.09 in SW 1.0 mph 5.0 mph 71 % 0.00 in
02:16 66.7 °F 56.6 °F 30.09 in SW 1.0 mph 4.0 mph 70 % 0.00 in
02:21 66.6 °F 56.5 °F 30.09 in SW 1.0 mph 3.0 mph 70 % 0.00 in
02:26 66.6 °F 56.5 °F 30.09 in WSW 1.0 mph 6.0 mph 70 % 0.00 in
02:31 66.5 °F 56.4 °F 30.09 in Calm   4.0 mph 70 % 0.00 in
02:36 66.5 °F 56.4 °F 30.09 in SW 0.1 mph 3.5 mph 70 % 0.00 in
02:41 66.5 °F 56.4 °F 30.09 in SW 0.3 mph 2.0 mph 70 % 0.00 in
02:46 66.4 °F 56.3 °F 30.09 in Calm   3.0 mph 70 % 0.00 in
02:51 66.4 °F 56.3 °F 30.09 in Calm   1.0 mph 70 % 0.00 in
02:56 66.4 °F 56.7 °F 30.09 in Calm   1.0 mph 71 % 0.00 in
03:01 66.3 °F 56.2 °F 30.09 in SW 0.5 mph 3.5 mph 70 % 0.00 in
03:06 66.3 °F 56.2 °F 30.09 in SW 1.0 mph 4.0 mph 70 % 0.00 in
03:11 66.2 °F 56.1 °F 30.09 in Calm   4.0 mph 70 % 0.00 in
03:16 66.2 °F 56.5 °F 30.09 in SW 1.0 mph 3.5 mph 71 % 0.00 in
03:21 66.2 °F 56.1 °F 30.09 in SW 1.2 mph 2.3 mph 70 % 0.00 in
03:26 66.1 °F 56.0 °F 30.09 in WSW 1.0 mph 4.0 mph 70 % 0.00 in
03:31 66.1 °F 56.0 °F 30.10 in Calm   3.0 mph 70 % 0.00 in
03:36 66.1 °F 56.0 °F 30.10 in SW 1.0 mph 5.0 mph 70 % 0.00 in
03:41 66.1 °F 56.0 °F 30.10 in SW 1.0 mph 4.0 mph 70 % 0.00 in
03:46 66.0 °F 56.3 °F 30.10 in Calm   1.2 mph 71 % 0.00 in
03:51 65.9 °F 56.2 °F 30.10 in SW 0.1 mph 3.5 mph 71 % 0.00 in
03:56 65.8 °F 56.5 °F 30.10 in SW 0.7 mph 2.3 mph 72 % 0.00 in
04:01 65.8 °F 56.5 °F 30.10 in SW 0.3 mph 2.3 mph 72 % 0.00 in
04:06 65.6 °F 56.3 °F 30.10 in SW 0.2 mph 2.3 mph 72 % 0.00 in
04:11 65.6 °F 56.3 °F 30.11 in WSW 0.4 mph 2.3 mph 72 % 0.00 in
04:16 65.4 °F 56.5 °F 30.11 in WSW 0.1 mph 3.5 mph 73 % 0.00 in
04:21 65.4 °F 56.5 °F 30.11 in SW 1.8 mph 3.5 mph 73 % 0.00 in
04:26 65.2 °F 56.3 °F 30.11 in SW 0.3 mph 1.2 mph 73 % 0.00 in
04:31 65.2 °F 56.3 °F 30.11 in SW 0.1 mph 2.3 mph 73 % 0.00 in
04:36 65.1 °F 56.6 °F 30.11 in Calm     74 % 0.00 in
04:41 65.1 °F 56.6 °F 30.11 in Calm     74 % 0.00 in
04:46 65.0 °F 56.5 °F 30.11 in Calm     74 % 0.00 in
04:51 64.9 °F 56.8 °F 30.11 in Calm   2.3 mph 75 % 0.00 in
04:56 64.8 °F 56.7 °F 30.11 in WSW 0.6 mph 3.5 mph 75 % 0.00 in
05:01 64.7 °F 56.6 °F 30.11 in Calm     75 % 0.00 in
05:06 64.6 °F 56.9 °F 30.11 in Calm     76 % 0.00 in
05:11 64.5 °F 56.4 °F 30.11 in Calm     75 % 0.00 in
05:16 64.5 °F 56.8 °F 30.11 in Calm   1.2 mph 76 % 0.00 in
05:21 64.5 °F 56.8 °F 30.11 in SW 0.4 mph 1.0 mph 76 % 0.00 in
05:26 64.5 °F 56.8 °F 30.11 in Calm   2.3 mph 76 % 0.00 in
05:31 64.5 °F 56.8 °F 30.11 in SSW 0.2 mph 1.2 mph 76 % 0.00 in
05:36 64.6 °F 57.2 °F 30.11 in SSW 0.1 mph 1.2 mph 77 % 0.00 in
05:41 64.6 °F 57.2 °F 30.11 in Calm   3.5 mph 77 % 0.00 in
05:46 64.6 °F 57.2 °F 30.11 in SW 0.1 mph   77 % 0.00 in
05:52 64.7 °F 57.3 °F 30.11 in Calm     77 % 0.00 in
05:57 64.7 °F 57.3 °F 30.11 in Calm     77 % 0.00 in
06:02 64.8 °F 57.4 °F 30.11 in Calm     77 % 0.00 in
06:07 64.8 °F 57.4 °F 30.11 in Calm     77 % 0.00 in
06:08 64.8 °F 57.4 °F 30.11 in Calm     77 % 0.00 in
06:13 64.9 °F 57.9 °F 30.11 in Calm     78 % 0.00 in
06:19 65.0 °F 58.0 °F 30.11 in Calm     78 % 0.00 in
06:24 65.0 °F 58.0 °F 30.11 in Calm     78 % 0.00 in
06:29 65.1 °F 58.1 °F 30.11 in SW 0.3 mph 2.3 mph 78 % 0.00 in
06:34 65.2 °F 58.2 °F 30.12 in SW 0.1 mph 1.2 mph 78 % 0.00 in
06:39 65.3 °F 58.3 °F 30.12 in Calm     78 % 0.00 in
06:44 65.4 °F 58.4 °F 30.12 in West 1.8 mph 4.6 mph 78 % 0.00 in
06:49 65.5 °F 58.5 °F 30.11 in SSW 0.2 mph 1.2 mph 78 % 0.00 in
06:54 65.6 °F 58.9 °F 30.11 in SSW 0.2 mph 1.2 mph 79 % 0.00 in
06:59 65.7 °F 59.0 °F 30.11 in South 0.9 mph 3.5 mph 79 % 0.00 in
07:04 65.9 °F 58.8 °F 30.11 in Calm     78 % 0.00 in
07:09 66.1 °F 59.0 °F 30.11 in SW 0.2 mph 3.0 mph 78 % 0.00 in
07:14 66.3 °F 59.2 °F 30.12 in SW 3.0 mph 8.1 mph 78 % 0.00 in
07:19 66.6 °F 59.5 °F 30.12 in WSW 1.6 mph 3.5 mph 78 % 0.00 in
07:24 66.7 °F 59.6 °F 30.12 in Calm     78 % 0.00 in
07:29 67.0 °F 60.3 °F 30.12 in WSW 1.5 mph 2.3 mph 79 % 0.00 in
07:34 67.1 °F 60.0 °F 30.12 in WSW 0.1 mph 2.3 mph 78 % 0.00 in
07:39 67.3 °F 60.2 °F 30.13 in SW 0.2 mph 1.2 mph 78 % 0.00 in
07:44 67.5 °F 60.4 °F 30.12 in SW 0.3 mph 1.2 mph 78 % 0.00 in
07:49 67.8 °F 60.7 °F 30.13 in Calm   1.2 mph 78 % 0.00 in
07:54 68.1 °F 61.3 °F 30.12 in Calm   1.2 mph 79 % 0.00 in
07:59 68.2 °F 61.1 °F 30.12 in SW 0.2 mph 1.2 mph 78 % 0.00 in
08:04 68.4 °F 61.3 °F 30.12 in SW 0.4 mph 2.0 mph 78 % 0.00 in
08:09 68.6 °F 61.5 °F 30.12 in SW 0.1 mph 1.2 mph 78 % 0.00 in
08:14 68.8 °F 61.3 °F 30.12 in SW 0.2 mph 1.2 mph 77 % 0.00 in
08:20 69.0 °F 61.5 °F 30.12 in West 2.2 mph 5.8 mph 77 % 0.00 in
08:25 69.3 °F 61.8 °F 30.12 in Calm   1.2 mph 77 % 0.00 in
08:30 69.6 °F 62.1 °F 30.11 in SSE 0.2 mph 2.3 mph 77 % 0.00 in
08:35 69.9 °F 62.4 °F 30.11 in SW 1.1 mph 4.6 mph 77 % 0.00 in
08:40 70.2 °F 62.3 °F 30.11 in WSW 1.4 mph 2.0 mph 76 % 0.00 in
08:45 70.4 °F 62.8 °F 30.11 in SW 0.2 mph 1.2 mph 77 % 0.00 in
08:50 70.6 °F 62.7 °F 30.11 in South 0.7 mph 2.3 mph 76 % 0.00 in
08:55 70.8 °F 62.9 °F 30.11 in SW 0.8 mph 3.5 mph 76 % 0.00 in
09:00 71.0 °F 63.1 °F 30.10 in South 0.9 mph 3.5 mph 76 % 0.00 in
09:05 71.2 °F 62.9 °F 30.10 in SW 1.8 mph 4.6 mph 75 % 0.00 in
09:10 71.5 °F 62.8 °F 30.10 in SE 1.8 mph 9.2 mph 74 % 0.00 in
09:15 71.9 °F 63.2 °F 30.10 in SSW 0.7 mph 4.6 mph 74 % 0.00 in
09:20 72.3 °F 63.2 °F 30.10 in SSE 1.9 mph 3.5 mph 73 % 0.00 in
09:25 72.7 °F 62.8 °F 30.09 in NE 0.4 mph 2.3 mph 71 % 0.00 in
09:30 73.1 °F 63.1 °F 30.09 in WSW 2.5 mph 4.6 mph 71 % 0.00 in
09:35 73.5 °F 63.1 °F 30.09 in SSW 3.3 mph 5.0 mph 70 % 0.00 in
09:40 74.0 °F 63.6 °F 30.09 in South 1.4 mph 6.0 mph 70 % 0.00 in
09:45 74.4 °F 63.6 °F 30.09 in West 1.5 mph 3.5 mph 69 % 0.00 in
09:50 74.8 °F 63.5 °F 30.09 in Calm   2.3 mph 68 % 0.00 in
09:55 75.2 °F 63.9 °F 30.09 in SSW 1.2 mph 5.8 mph 68 % 0.00 in
10:00 75.5 °F 63.8 °F 30.09 in SW 3.1 mph 5.8 mph 67 % 0.00 in
10:05 75.9 °F 64.6 °F 30.08 in SW 0.2 mph 2.3 mph 68 % 0.00 in
10:10 76.2 °F 63.1 °F 30.08 in SSW 2.5 mph 5.0 mph 64 % 0.00 in
10:16 76.6 °F 65.2 °F 30.09 in SSW 1.0 mph 6.0 mph 68 % 0.00 in
10:21 76.9 °F 64.2 °F 30.09 in SSW 2.0 mph 10.0 mph 65 % 0.00 in
10:26 77.2 °F 63.2 °F 30.09 in South 2.0 mph 10.0 mph 62 % 0.00 in
10:30 77.5 °F 65.3 °F 30.09 in South 1.0 mph 6.0 mph 66 % 0.00 in
10:35 77.8 °F 64.2 °F 30.09 in South 1.0 mph 6.0 mph 63 % 0.00 in
10:41 78.0 °F 63.9 °F 30.09 in SSW 3.0 mph 7.0 mph 62 % 0.00 in
10:46 78.1 °F 64.5 °F 30.09 in SSW 3.0 mph 8.0 mph 63 % 0.00 in
10:51 78.2 °F 64.1 °F 30.09 in SSW 1.0 mph 5.0 mph 62 % 0.00 in
10:56 78.2 °F 65.0 °F 30.09 in SW 3.0 mph 8.0 mph 64 % 0.00 in
11:01 78.4 °F 65.2 °F 30.09 in South 3.2 mph 5.8 mph 64 % 0.00 in
11:06 78.7 °F 65.5 °F 30.09 in SW 1.4 mph 3.5 mph 64 % 0.00 in
11:11 79.0 °F 65.8 °F 30.08 in SSW 2.8 mph 9.2 mph 64 % 0.00 in
11:16 79.7 °F 66.0 °F 30.08 in ESE 1.6 mph 3.5 mph 63 % 0.00 in
11:21 80.1 °F 65.4 °F 30.08 in SSW 1.7 mph 3.5 mph 61 % 0.00 in
11:26 80.5 °F 65.8 °F 30.08 in SW 1.4 mph 3.5 mph 61 % 0.00 in
11:31 80.9 °F 65.7 °F 30.08 in SSE 1.5 mph 3.5 mph 60 % 0.00 in
11:36 81.2 °F 67.4 °F 30.08 in SE 3.1 mph 6.9 mph 63 % 0.00 in
11:41 81.6 °F 65.9 °F 30.08 in SSW 5.0 mph 10.4 mph 59 % 0.00 in
11:46 82.0 °F 65.8 °F 30.08 in SSW 3.7 mph 6.9 mph 58 % 0.00 in
11:51 82.4 °F 65.6 °F 30.08 in South 2.6 mph 5.8 mph 57 % 0.00 in
11:56 82.6 °F 66.8 °F 30.07 in WSW 2.7 mph 4.6 mph 59 % 0.00 in
12:01 82.5 °F 64.7 °F 30.07 in SSE 2.5 mph 4.6 mph 55 % 0.00 in
12:06 82.2 °F 66.0 °F 30.07 in SSW 2.3 mph 3.5 mph 58 % 0.00 in
12:11 82.0 °F 65.3 °F 30.07 in SSW 1.3 mph 3.5 mph 57 % 0.00 in
12:16 82.0 °F 65.3 °F 30.07 in SSE 1.9 mph 4.6 mph 57 % 0.00 in
12:21 81.7 °F 65.0 °F 30.07 in SSW 2.4 mph 8.1 mph 57 % 0.00 in
12:26 81.3 °F 64.1 °F 30.07 in WSW 2.6 mph 3.5 mph 56 % 0.00 in
12:31 81.4 °F 65.2 °F 30.07 in SSW 1.6 mph 3.5 mph 58 % 0.00 in
12:36 81.7 °F 65.5 °F 30.06 in SSW 5.4 mph 8.1 mph 58 % 0.00 in
12:41 81.8 °F 65.1 °F 30.06 in SSE 2.5 mph 4.6 mph 57 % 0.00 in
12:46 81.6 °F 63.9 °F 30.06 in SE 1.7 mph 10.0 mph 55 % 0.00 in
12:51 81.4 °F 65.2 °F 30.06 in SSE 2.6 mph 3.5 mph 58 % 0.00 in
12:56 81.5 °F 67.2 °F 30.06 in SSW 1.1 mph 3.5 mph 62 % 0.00 in
13:01 81.9 °F 65.2 °F 30.06 in South 2.1 mph 6.9 mph 57 % 0.00 in
13:06 82.0 °F 66.3 °F 30.06 in SW 5.3 mph 11.5 mph 59 % 0.00 in
13:10 82.2 °F 66.9 °F 30.06 in South 1.6 mph 5.8 mph 60 % 0.00 in
13:15 82.3 °F 66.0 °F 30.06 in SE 1.2 mph 3.5 mph 58 % 0.00 in
13:20 82.5 °F 67.2 °F 30.06 in South 2.7 mph 8.0 mph 60 % 0.00 in
13:25 82.2 °F 64.4 °F 30.05 in South 3.3 mph 8.1 mph 55 % 0.00 in
13:30 81.6 °F 64.9 °F 30.05 in WNW 2.3 mph 5.8 mph 57 % 0.00 in
13:35 81.5 °F 66.3 °F 30.05 in SSW 3.9 mph 5.0 mph 60 % 0.00 in
13:40 81.4 °F 66.2 °F 30.05 in South 3.1 mph 9.0 mph 60 % 0.00 in
13:45 81.4 °F 65.2 °F 30.05 in South 2.4 mph 6.0 mph 58 % 0.00 in
13:50 81.5 °F 65.3 °F 30.05 in South 4.0 mph 13.8 mph 58 % 0.00 in
13:55 81.7 °F 66.5 °F 30.05 in SSW 3.9 mph 5.8 mph 60 % 0.00 in
14:00 81.7 °F 66.9 °F 30.04 in SW 2.0 mph 3.5 mph 61 % 0.00 in
14:05 81.9 °F 66.2 °F 30.04 in SSE 3.0 mph 4.6 mph 59 % 0.00 in
14:10 81.9 °F 66.6 °F 30.05 in SW 4.0 mph 8.1 mph 60 % 0.00 in
14:15 82.0 °F 66.7 °F 30.04 in SSW 4.7 mph 7.0 mph 60 % 0.00 in
14:20 82.2 °F 66.9 °F 30.04 in SW 5.5 mph 11.5 mph 60 % 0.00 in
14:25 82.3 °F 66.5 °F 30.04 in SSW 2.7 mph 6.9 mph 59 % 0.00 in
14:30 82.4 °F 67.1 °F 30.04 in South 1.2 mph 4.0 mph 60 % 0.00 in
14:35 82.4 °F 65.6 °F 30.04 in SSW 7.5 mph 12.7 mph 57 % 0.00 in
14:40 82.3 °F 66.5 °F 30.05 in SW 4.4 mph 8.1 mph 59 % 0.00 in
14:45 82.3 °F 67.0 °F 30.05 in South 1.5 mph 4.0 mph 60 % 0.00 in
14:50 82.2 °F 66.9 °F 30.05 in SE 0.7 mph   60 % 0.00 in
14:55 82.0 °F 65.8 °F 30.04 in SSW 2.2 mph 5.0 mph 58 % 0.00 in
15:00 81.5 °F 66.3 °F 30.04 in WSW 4.0 mph 8.1 mph 60 % 0.00 in
15:05 81.3 °F 66.6 °F 30.04 in South 4.0 mph 8.1 mph 61 % 0.00 in
15:10 81.0 °F 65.8 °F 30.03 in SW 2.8 mph 8.1 mph 60 % 0.00 in
15:16 80.9 °F 66.2 °F 30.04 in South 6.0 mph 14.0 mph 61 % 0.00 in
15:21 80.7 °F 66.5 °F 30.04 in SSW 3.0 mph 7.0 mph 62 % 0.00 in
15:26 80.7 °F 66.5 °F 30.03 in SSW 5.0 mph 10.0 mph 62 % 0.00 in
15:31 80.7 °F 66.0 °F 30.03 in South 3.0 mph 7.0 mph 61 % 0.00 in
15:37 80.5 °F 65.8 °F 30.03 in SSW 4.5 mph 6.0 mph 61 % 0.00 in
15:42 80.4 °F 66.2 °F 30.03 in SSW 2.2 mph 3.5 mph 62 % 0.00 in
15:47 80.5 °F 67.2 °F 30.03 in SW 5.4 mph 5.4 mph 64 % 0.00 in
15:52 80.6 °F 66.8 °F 30.03 in SSW 3.6 mph 4.0 mph 63 % 0.00 in
15:57 80.5 °F 66.7 °F 30.02 in South 5.4 mph 10.4 mph 63 % 0.00 in
16:02 80.3 °F 65.6 °F 30.02 in SSW 5.2 mph 11.5 mph 61 % 0.00 in
16:07 80.1 °F 66.4 °F 30.02 in South 4.1 mph 11.5 mph 63 % 0.00 in
16:12 79.7 °F 66.0 °F 30.02 in SSE 2.7 mph 6.9 mph 63 % 0.00 in
16:17 79.3 °F 65.6 °F 30.01 in South 1.9 mph 10.4 mph 63 % 0.00 in
16:22 78.9 °F 65.7 °F 30.01 in SSE 2.3 mph 6.9 mph 64 % 0.00 in
16:27 78.6 °F 65.8 °F 30.01 in SSW 4.5 mph 10.0 mph 65 % 0.00 in
16:32 78.3 °F 66.0 °F 30.01 in SW 1.9 mph 5.8 mph 66 % 0.00 in
16:37 78.0 °F 65.7 °F 30.01 in SSE 3.5 mph 14.0 mph 66 % 0.00 in
16:42 77.6 °F 65.3 °F 30.01 in SE 1.3 mph 4.6 mph 66 % 0.00 in
16:48 77.4 °F 65.6 °F 30.01 in SSW 5.1 mph 13.8 mph 67 % 0.00 in
16:53 77.3 °F 65.5 °F 30.01 in SSE 2.6 mph 9.2 mph 67 % 0.00 in
16:58 77.2 °F 65.8 °F 30.00 in SSW 3.2 mph 8.1 mph 68 % 0.00 in
17:03 77.2 °F 66.2 °F 30.00 in SSE 4.3 mph 9.2 mph 69 % 0.00 in
17:06 77.1 °F 66.1 °F 30.00 in SW 3.2 mph 9.2 mph 69 % 0.00 in
17:11 76.9 °F 66.0 °F 30.00 in SSW 4.6 mph 8.1 mph 69 % 0.00 in
17:16 76.7 °F 65.8 °F 30.00 in SE 3.3 mph 11.0 mph 69 % 0.00 in
17:21 76.5 °F 66.0 °F 30.00 in SSW 1.4 mph 4.6 mph 70 % 0.00 in
17:26 76.4 °F 65.9 °F 30.00 in SW 2.4 mph 6.9 mph 70 % 0.00 in
17:31 76.2 °F 66.1 °F 30.00 in South 2.4 mph 4.6 mph 71 % 0.00 in
17:36 76.0 °F 65.5 °F 30.00 in SSW 3.1 mph 6.9 mph 70 % 0.00 in
17:41 75.8 °F 65.7 °F 30.00 in SW 3.5 mph 12.7 mph 71 % 0.00 in
17:46 75.7 °F 65.6 °F 30.00 in South 5.5 mph 11.5 mph 71 % 0.00 in
17:51 75.6 °F 65.5 °F 30.00 in SSE 1.1 mph 3.5 mph 71 % 0.00 in
17:56 75.5 °F 65.8 °F 30.01 in South 3.3 mph 10.4 mph 72 % 0.00 in
18:01 75.3 °F 65.2 °F 30.00 in SSW 3.5 mph 7.0 mph 71 % 0.00 in
18:06 75.2 °F 65.6 °F 30.00 in South 2.3 mph 3.5 mph 72 % 0.00 in
18:11 75.1 °F 65.5 °F 30.01 in South 2.8 mph 6.0 mph 72 % 0.00 in
18:16 75.0 °F 65.8 °F 30.01 in SE 2.3 mph 6.9 mph 73 % 0.00 in
18:21 74.9 °F 65.7 °F 30.01 in SSE 2.0 mph 3.5 mph 73 % 0.00 in
18:26 74.8 °F 65.6 °F 30.01 in ENE 3.0 mph 10.4 mph 73 % 0.00 in
18:31 74.8 °F 65.6 °F 30.01 in SSW 3.8 mph 6.9 mph 73 % 0.00 in
18:36 74.6 °F 65.4 °F 30.00 in South 4.0 mph 7.0 mph 73 % 0.00 in
18:41 74.5 °F 65.3 °F 30.00 in ESE 3.6 mph 8.0 mph 73 % 0.00 in
18:46 74.3 °F 65.1 °F 30.00 in SSE 3.4 mph 6.0 mph 73 % 0.00 in
18:51 74.2 °F 65.4 °F 30.00 in South 4.3 mph 6.9 mph 74 % 0.00 in
18:56 74.1 °F 65.3 °F 29.99 in SSE 4.9 mph 7.0 mph 74 % 0.00 in
19:01 74.1 °F 64.9 °F 30.00 in SSW 4.0 mph 8.1 mph 73 % 0.00 in
19:06 74.0 °F 64.8 °F 30.00 in SSW 4.5 mph 6.9 mph 73 % 0.00 in
19:11 74.0 °F 65.2 °F 30.00 in South 3.0 mph 9.0 mph 74 % 0.00 in
19:16 73.9 °F 65.1 °F 30.00 in South 5.0 mph 9.0 mph 74 % 0.00 in
19:21 73.8 °F 65.0 °F 30.00 in SSW 5.0 mph 12.0 mph 74 % 0.00 in
19:26 73.7 °F 64.9 °F 30.00 in SSW 2.0 mph 8.0 mph 74 % 0.00 in
19:31 73.6 °F 64.8 °F 30.00 in SSW 2.0 mph 9.0 mph 74 % 0.00 in
19:36 73.5 °F 64.7 °F 30.00 in SSW 5.0 mph 13.0 mph 74 % 0.00 in
19:41 73.3 °F 64.6 °F 30.00 in SSW 3.0 mph 9.0 mph 74 % 0.00 in
19:46 73.2 °F 64.4 °F 29.99 in South 3.0 mph 9.0 mph 74 % 0.00 in
19:51 73.1 °F 64.7 °F 30.00 in South 3.0 mph 7.0 mph 75 % 0.00 in
19:56 73.0 °F 64.6 °F 30.00 in SSE 2.5 mph 6.9 mph 75 % 0.00 in
20:01 72.9 °F 64.9 °F 30.00 in SE 4.1 mph 7.0 mph 76 % 0.00 in
20:06 72.8 °F 64.8 °F 30.00 in South 2.0 mph 7.0 mph 76 % 0.00 in
20:11 72.6 °F 64.6 °F 30.00 in SSW 2.0 mph 8.0 mph 76 % 0.00 in
20:16 72.5 °F 64.9 °F 29.99 in SSW 1.5 mph 3.5 mph 77 % 0.00 in
20:21 72.4 °F 64.8 °F 29.99 in SE 2.1 mph 5.8 mph 77 % 0.00 in
20:26 72.3 °F 64.7 °F 29.99 in South 3.0 mph 10.0 mph 77 % 0.00 in
20:31 72.2 °F 64.6 °F 29.99 in South 5.0 mph 9.0 mph 77 % 0.00 in
20:36 72.2 °F 64.2 °F 29.99 in South 2.0 mph 8.0 mph 76 % 0.00 in
20:41 72.1 °F 64.1 °F 29.98 in South 2.0 mph 7.0 mph 76 % 0.00 in
20:46 72.2 °F 64.2 °F 29.98 in South 3.0 mph 10.0 mph 76 % 0.00 in
20:51 72.1 °F 64.1 °F 29.98 in South 3.0 mph 9.0 mph 76 % 0.00 in
20:56 72.2 °F 64.2 °F 29.99 in South 3.0 mph 7.0 mph 76 % 0.00 in
21:01 72.1 °F 64.1 °F 29.98 in SW 3.6 mph 4.6 mph 76 % 0.00 in
21:06 72.1 °F 63.7 °F 29.98 in SSW 3.1 mph 5.8 mph 75 % 0.00 in
21:11 72.1 °F 63.7 °F 29.98 in South 2.0 mph 8.0 mph 75 % 0.00 in
21:16 72.1 °F 63.7 °F 29.98 in South 2.0 mph 7.0 mph 75 % 0.00 in
21:21 72.0 °F 63.7 °F 29.98 in South 2.0 mph 7.0 mph 75 % 0.00 in
21:26 72.0 °F 63.6 °F 29.99 in SSW 2.0 mph 6.0 mph 75 % 0.00 in
21:31 71.9 °F 63.6 °F 29.99 in SSW 1.0 mph 6.0 mph 75 % 0.00 in
21:36 71.9 °F 63.5 °F 29.99 in South 0.3 mph 3.5 mph 75 % 0.00 in
21:41 71.9 °F 63.5 °F 29.99 in SE 1.9 mph 4.6 mph 75 % 0.00 in
21:46 71.8 °F 63.4 °F 29.99 in South 1.6 mph 3.5 mph 75 % 0.00 in
21:51 71.7 °F 63.4 °F 29.99 in SSW 1.3 mph 3.5 mph 75 % 0.00 in
21:56 71.7 °F 63.0 °F 29.99 in South 2.0 mph 7.0 mph 74 % 0.00 in
22:01 71.7 °F 63.0 °F 29.99 in SSE 1.4 mph 3.5 mph 74 % 0.00 in
22:06 71.7 °F 63.0 °F 29.99 in SSW 1.0 mph 5.0 mph 74 % 0.00 in
22:11 71.7 °F 63.0 °F 29.99 in SSW 1.0 mph 8.0 mph 74 % 0.00 in
22:16 71.7 °F 63.0 °F 29.99 in SSW 2.0 mph 8.0 mph 74 % 0.00 in
22:21 71.6 °F 62.9 °F 29.99 in SSW 2.0 mph 6.0 mph 74 % 0.00 in
22:26 71.6 °F 62.9 °F 29.99 in South 2.0 mph 8.0 mph 74 % 0.00 in
22:31 71.6 °F 62.9 °F 29.99 in South 2.0 mph 6.0 mph 74 % 0.00 in
22:36 71.6 °F 62.9 °F 29.99 in SSE 2.0 mph 7.0 mph 74 % 0.00 in
22:41 71.6 °F 62.8 °F 29.99 in South 2.0 mph 5.0 mph 74 % 0.00 in
22:46 71.5 °F 63.2 °F 29.99 in SSW 1.0 mph 6.0 mph 75 % 0.00 in
22:51 71.5 °F 62.8 °F 30.00 in SW 2.5 mph 3.0 mph 74 % 0.00 in
22:56 71.5 °F 62.8 °F 30.00 in SSW 1.5 mph 3.0 mph 74 % 0.00 in
23:01 71.4 °F 62.7 °F 30.00 in SSW 1.0 mph 5.8 mph 74 % 0.00 in
23:06 71.4 °F 62.7 °F 29.99 in SSW 2.1 mph 3.5 mph 74 % 0.00 in
23:11 71.4 °F 62.7 °F 29.99 in SSW 0.5 mph 5.8 mph 74 % 0.00 in
23:16 71.4 °F 62.7 °F 29.99 in SSE 2.1 mph 3.5 mph 74 % 0.00 in
23:21 71.4 °F 62.7 °F 29.99 in South 2.3 mph 4.6 mph 74 % 0.00 in
23:26 71.4 °F 62.3 °F 29.99 in SE 1.1 mph 3.5 mph 73 % 0.00 in
23:31 71.5 °F 62.4 °F 29.99 in SSW 3.1 mph 9.2 mph 73 % 0.00 in
23:36 71.5 °F 62.4 °F 29.99 in South 1.9 mph 4.6 mph 73 % 0.00 in
23:41 71.5 °F 62.4 °F 29.99 in SSW 2.5 mph 5.8 mph 73 % 0.00 in
23:46 71.5 °F 62.0 °F 29.99 in South 0.6 mph 3.5 mph 72 % 0.00 in
23:51 71.5 °F 62.0 °F 29.98 in South 1.4 mph 3.5 mph 72 % 0.00 in
23:56 71.5 °F 62.0 °F 29.99 in SSW 2.7 mph 6.9 mph 72 % 0.00 in
Crab Meadow Weather
Compliments of Weather Underground - 3.25 mb

Script developed by  Jim McMurry - jmcmurry@mwt.net Adapted for the template by  Wim van der Kuil - Leuven-Template.eu

Weather Terms: Blizzard Warning - Sustained winds or frequent gusts of 35 mph or greater, considerable falling and/or blowing snow reducing visibility frequently to 1/4 mile or less for a period of three hours or more. There are no temperature criteria in the definition of a blizzard but freezing temperatures and 35 mph winds will create sub-zero wind chills.